Airfield :







YOU CAN JOIN US ON...

 
LOGIN :

Register | Disclaimer

   EN    FR    IT 

 









Legend :    VFR   Marginal VFR   IFR   Intensive IFR   Very Intensive IFR
Visi :
Ceiling :
>= 8 km
>= 3000ft
5 to 8 km
1000 to 3000 ft
1500m to 5 km
500 to 1000 ft
800 to 1500m
200 to 500 ft
< 800m
< 200 ft
Symbols :   Thunderstorms  Fog  Heavy snow  Heavy precipitations  Wind > 20 kt






- Airport Elevation : 172 ft
- IATA code : YYY


CYYY - Mont Joli

CURRENT METAR :
  • 272200Z 23015G21KT 10SM -SHRA SCT038 BKN071 13/10 A2961 RMK SC3AC4 CVCTV CLD EMBD SLP030 DENSITY ALT 400FT

EXPIRED METARs :
  • 272157Z 23012G18KT 10SM -SHRA SCT043 BKN071 13/10 A2961 RMK SC3AC4 CVCTV CLD EMBD SLP031 DENSITY ALT 400FT
  • 272100Z 22010G16KT 15SM SCT038 BKN110 14/11 A2959 RMK SC3AC3 SLP024 DENSITY ALT 500FT
  • 272026Z 23012G17KT 10SM SCT038 BKN110 13/12 A2960 RMK SC3AC3 SLP027 DENSITY ALT 300FT
  • 272000Z 23012G22KT 10SM -RA BKN045 12/10 A2961 RMK SC7 SLP031 DENSITY ALT 200FT

TAF AMD TAF CYYY
Valid from the 27 at 20:00 until the 28 at 08:00 UTC


271942Z 2720/2808 24015G25KT P6SM BKN050
TEMPO 2720/2802 P6SM -SHRA OVC020
BECMG 2721/2723 23012KT
FM280600 23010KT P6SM FEW030 RMK NXT FCST BY 280200Z
CZUL FIR / North America



MET'MAP, your aeronautical weather chart ! - Copyright ORBIFLY December 2007 - Disclaimer

ORBIFLY MET'MAP TEAM :

Programming & Development : Alexandra Zaïnal
Concept & original design : Baudouin d'Aumeries
Assistance for programming : Marc-Olivier Méhu
Technical & hardware support : Manuel Goepfert

Contact : metmap@orbifly.com




SOURCES & CREDITS :

   NOAA